CheckWX is a tool to help pilots better visualize weather data.  It is not intended as a substitute for an official pre-flight weather briefing.

21:05:18 UTC

SCIE TAF
Carriel Sur Airport
Concepcion, Chile
TAF AMD SCIE 161911Z 1620/1718 05005KT CAVOK TX13/1620Z TN04/1711Z TEMPO 1620/1624 34006KT BECMG 1701/1703 12004KT TEMPO 1707/1712 09004KT 5000 BR SCT010 BECMG 1714/1716 03004KT FEW020

Jun-16@
20:00 UTC

Jun-16 @ 20:00 UTC

Jun-17@
01:00 UTC

Jun-17 @ 01:00 UTC

TAF AMD SCIE 161911Z 1620/1718 05005KT CAVOK TX13/1620Z TN04/1711Z
Wind
  • 050° at 5 KTS
Cloud Levels
  • No significant clouds

Jun-16@
20:00 UTC

Jun-16 @ 20:00 UTC

Jun-17@
00:00 UTC

Jun-17 @ 00:00 UTC

TEMPO 1620/1624 34006KT

Temporary

Temporary Changes expected for less than half the time period

Wind
  • 340° at 6 KTS

Jun-17@
01:00 UTC

Jun-17 @ 01:00 UTC

Jun-17@
14:00 UTC

Jun-17 @ 14:00 UTC

BECMG 1701/1703 12004KT

Becoming

Becoming Conditions expected by Mon, Jun 17, 2019 @ 03:00 UTC

Wind
  • 120° at 4 KTS
Cloud Levels
  • No significant clouds

Jun-17@
07:00 UTC

Jun-17 @ 07:00 UTC

Jun-17@
12:00 UTC

Jun-17 @ 12:00 UTC

TEMPO 1707/1712 09004KT 5000 BR SCT010

Temporary

Temporary Changes expected for less than half the time period

Wind
  • 090° at 4 KTS
Conditions
Mist
Cloud Levels
  • Scattered at 1,000' AGL

Jun-17@
14:00 UTC

Jun-17 @ 14:00 UTC

Jun-17@
18:00 UTC

Jun-17 @ 18:00 UTC

BECMG 1714/1716 03004KT FEW020

Becoming

Becoming Conditions expected by Mon, Jun 17, 2019 @ 16:00 UTC

Wind
  • 030° at 4 KTS
Cloud Levels
  • Few at 2,000' AGL